sensor_id;sensor_type;location;lat;lon;timestamp;pressure;altitude;pressure_sealevel;temperature;humidity
82187;BME280;71776;52.042;8.160;2023-09-12T00:02:03;100470.13;;;21.61;100.00
82187;BME280;71776;52.042;8.160;2023-09-12T00:04:29;100475.81;;;21.69;100.00
82187;BME280;71776;52.042;8.160;2023-09-12T00:06:54;100474.00;;;21.71;100.00
82187;BME280;71776;52.042;8.160;2023-09-12T00:09:20;100472.00;;;21.59;100.00
82187;BME280;71776;52.042;8.160;2023-09-12T00:11:47;100467.56;;;21.60;100.00
82187;BME280;71776;52.042;8.160;2023-09-12T00:14:15;100474.34;;;21.48;100.00
82187;BME280;71776;52.042;8.160;2023-09-12T00:16:41;100489.44;;;21.62;100.00
82187;BME280;71776;52.042;8.160;2023-09-12T00:19:06;100502.75;;;21.59;100.00
82187;BME280;71776;52.042;8.160;2023-09-12T00:21:32;100502.97;;;21.89;100.00
82187;BME280;71776;52.042;8.160;2023-09-12T00:23:57;100506.44;;;21.39;100.00
82187;BME280;71776;52.042;8.160;2023-09-12T00:26:23;100539.59;;;21.43;100.00
82187;BME280;71776;52.042;8.160;2023-09-12T00:28:50;100572.56;;;21.35;100.00
82187;BME280;71776;52.042;8.160;2023-09-12T00:31:15;100579.59;;;21.17;100.00
82187;BME280;71776;52.042;8.160;2023-09-12T00:33:41;100574.09;;;20.86;100.00
82187;BME280;71776;52.042;8.160;2023-09-12T00:36:06;100556.13;;;20.94;100.00
82187;BME280;71776;52.042;8.160;2023-09-12T00:38:32;100551.59;;;20.79;100.00
82187;BME280;71776;52.042;8.160;2023-09-12T00:40:57;100540.44;;;20.74;100.00
82187;BME280;71776;52.042;8.160;2023-09-12T00:43:23;100532.56;;;20.55;100.00
82187;BME280;71776;52.042;8.160;2023-09-12T00:45:50;100543.34;;;20.86;100.00
82187;BME280;71776;52.042;8.160;2023-09-12T00:48:17;100541.31;;;20.91;100.00
82187;BME280;71776;52.042;8.160;2023-09-12T00:50:43;100511.03;;;20.83;100.00
82187;BME280;71776;52.042;8.160;2023-09-12T00:53:11;100517.47;;;20.59;100.00
82187;BME280;71776;52.042;8.160;2023-09-12T00:55:41;100501.34;;;20.66;100.00
82187;BME280;71776;52.042;8.160;2023-09-12T00:58:08;100499.34;;;20.53;100.00
82187;BME280;71776;52.042;8.160;2023-09-12T01:00:33;100516.00;;;20.53;100.00
82187;BME280;71776;52.042;8.160;2023-09-12T01:03:00;100501.91;;;20.54;100.00
82187;BME280;71776;52.042;8.160;2023-09-12T01:05:26;100493.88;;;20.57;100.00
82187;BME280;71776;52.042;8.160;2023-09-12T01:07:52;100492.47;;;20.50;100.00
82187;BME280;71776;52.042;8.160;2023-09-12T01:10:18;100488.75;;;20.54;100.00
82187;BME280;71776;52.042;8.160;2023-09-12T01:12:44;100487.53;;;20.43;100.00
82187;BME280;71776;52.042;8.160;2023-09-12T01:15:09;100493.00;;;20.57;100.00
82187;BME280;71776;52.042;8.160;2023-09-12T01:17:36;100486.44;;;20.65;100.00
82187;BME280;71776;52.042;8.160;2023-09-12T01:20:06;100488.28;;;20.82;100.00
82187;BME280;71776;52.042;8.160;2023-09-12T01:22:45;100488.16;;;20.66;100.00
82187;BME280;71776;52.042;8.160;2023-09-12T01:25:34;100495.38;;;20.44;100.00
82187;BME280;71776;52.042;8.160;2023-09-12T01:28:07;100510.78;;;20.70;100.00
82187;BME280;71776;52.042;8.160;2023-09-12T01:30:35;100516.00;;;20.89;100.00
82187;BME280;71776;52.042;8.160;2023-09-12T01:33:01;100518.69;;;20.87;100.00
82187;BME280;71776;52.042;8.160;2023-09-12T01:35:27;100525.69;;;20.88;100.00
82187;BME280;71776;52.042;8.160;2023-09-12T01:37:52;100531.94;;;20.86;100.00
82187;BME280;71776;52.042;8.160;2023-09-12T01:40:20;100518.16;;;20.81;100.00
82187;BME280;71776;52.042;8.160;2023-09-12T01:42:51;100509.78;;;20.90;100.00
82187;BME280;71776;52.042;8.160;2023-09-12T01:45:19;100512.56;;;20.87;100.00
82187;BME280;71776;52.042;8.160;2023-09-12T01:47:45;100508.47;;;20.46;100.00
82187;BME280;71776;52.042;8.160;2023-09-12T01:50:13;100519.69;;;20.49;100.00
82187;BME280;71776;52.042;8.160;2023-09-12T01:52:40;100530.34;;;20.65;100.00
82187;BME280;71776;52.042;8.160;2023-09-12T01:55:07;100546.78;;;20.70;100.00
82187;BME280;71776;52.042;8.160;2023-09-12T01:57:33;100575.31;;;20.79;100.00
82187;BME280;71776;52.042;8.160;2023-09-12T01:59:59;100627.09;;;20.78;100.00
82187;BME280;71776;52.042;8.160;2023-09-12T02:02:26;100620.56;;;20.68;100.00
82187;BME280;71776;52.042;8.160;2023-09-12T02:04:58;100605.53;;;20.52;100.00
82187;BME280;71776;52.042;8.160;2023-09-12T02:07:29;100604.75;;;20.50;100.00
82187;BME280;71776;52.042;8.160;2023-09-12T02:09:57;100593.88;;;20.76;100.00
82187;BME280;71776;52.042;8.160;2023-09-12T02:12:22;100587.00;;;20.73;100.00
82187;BME280;71776;52.042;8.160;2023-09-12T02:14:48;100568.69;;;20.89;100.00
82187;BME280;71776;52.042;8.160;2023-09-12T02:17:13;100609.81;;;21.10;100.00
82187;BME280;71776;52.042;8.160;2023-09-12T02:19:40;100631.19;;;21.04;100.00
82187;BME280;71776;52.042;8.160;2023-09-12T02:22:05;100615.50;;;21.20;100.00
82187;BME280;71776;52.042;8.160;2023-09-12T02:24:34;100571.47;;;20.67;100.00
82187;BME280;71776;52.042;8.160;2023-09-12T02:26:59;100583.94;;;20.26;100.00
82187;BME280;71776;52.042;8.160;2023-09-12T02:29:25;58473.59;;;-141.83;100.00
82187;BME280;71776;52.042;8.160;2023-09-12T02:31:50;58473.59;;;-141.83;100.00
82187;BME280;71776;52.042;8.160;2023-09-12T02:34:16;58473.59;;;-141.83;100.00
82187;BME280;71776;52.042;8.160;2023-09-12T02:36:43;58473.59;;;-141.83;100.00
82187;BME280;71776;52.042;8.160;2023-09-12T02:39:08;58473.59;;;-141.83;100.00
82187;BME280;71776;52.042;8.160;2023-09-12T02:41:34;58473.59;;;-141.83;100.00
82187;BME280;71776;52.042;8.160;2023-09-12T02:43:59;58473.59;;;-141.83;100.00
82187;BME280;71776;52.042;8.160;2023-09-12T02:46:25;58473.59;;;-141.83;100.00
82187;BME280;71776;52.042;8.160;2023-09-12T02:48:50;58473.59;;;-141.83;100.00
82187;BME280;71776;52.042;8.160;2023-09-12T02:51:16;58473.59;;;-141.83;100.00
82187;BME280;71776;52.042;8.160;2023-09-12T02:53:43;58473.59;;;-141.83;100.00
82187;BME280;71776;52.042;8.160;2023-09-12T02:56:08;58473.59;;;-141.83;100.00
82187;BME280;71776;52.042;8.160;2023-09-12T02:58:34;58473.59;;;-141.83;100.00
82187;BME280;71776;52.042;8.160;2023-09-12T03:00:59;58473.59;;;-141.83;100.00
82187;BME280;71776;52.042;8.160;2023-09-12T03:03:25;58473.59;;;-141.83;100.00
82187;BME280;71776;52.042;8.160;2023-09-12T03:05:57;58473.59;;;-141.83;100.00
82187;BME280;71776;52.042;8.160;2023-09-12T03:08:23;58473.59;;;-141.83;100.00
82187;BME280;71776;52.042;8.160;2023-09-12T03:10:54;58473.59;;;-141.83;100.00
82187;BME280;71776;52.042;8.160;2023-09-12T03:19:25;58473.59;;;-141.83;100.00
82187;BME280;71776;52.042;8.160;2023-09-12T03:28:05;58473.59;;;-141.83;100.00
82187;BME280;71776;52.042;8.160;2023-09-12T03:30:31;58473.59;;;-141.83;100.00
82187;BME280;71776;52.042;8.160;2023-09-12T03:32:56;58473.59;;;-141.83;100.00
82187;BME280;71776;52.042;8.160;2023-09-12T03:35:22;58473.59;;;-141.83;100.00
82187;BME280;71776;52.042;8.160;2023-09-12T03:37:47;58473.59;;;-141.83;100.00
82187;BME280;71776;52.042;8.160;2023-09-12T03:40:13;58473.59;;;-141.83;100.00
82187;BME280;71776;52.042;8.160;2023-09-12T03:42:38;58473.59;;;-141.83;100.00
82187;BME280;71776;52.042;8.160;2023-09-12T03:45:06;58473.59;;;-141.83;100.00
82187;BME280;71776;52.042;8.160;2023-09-12T03:47:32;58473.59;;;-141.83;100.00
82187;BME280;71776;52.042;8.160;2023-09-12T03:49:58;58473.59;;;-141.83;100.00
82187;BME280;71776;52.042;8.160;2023-09-12T03:52:23;58473.59;;;-141.83;100.00
82187;BME280;71776;52.042;8.160;2023-09-12T03:54:49;58473.59;;;-141.83;100.00
82187;BME280;71776;52.042;8.160;2023-09-12T03:57:14;58473.59;;;-141.83;100.00
82187;BME280;71776;52.042;8.160;2023-09-12T03:59:40;58473.59;;;-141.83;100.00
82187;BME280;71776;52.042;8.160;2023-09-12T04:02:08;58473.59;;;-141.83;100.00
82187;BME280;71776;52.042;8.160;2023-09-12T04:04:34;58473.59;;;-141.83;100.00
82187;BME280;71776;52.042;8.160;2023-09-12T04:06:59;58473.59;;;-141.83;100.00
82187;BME280;71776;52.042;8.160;2023-09-12T04:09:25;58473.59;;;-141.83;100.00
82187;BME280;71776;52.042;8.160;2023-09-12T04:11:50;58473.59;;;-141.83;100.00
82187;BME280;71776;52.042;8.160;2023-09-12T04:14:16;58473.59;;;-141.83;100.00
82187;BME280;71776;52.042;8.160;2023-09-12T04:16:41;58473.59;;;-141.83;100.00
82187;BME280;71776;52.042;8.160;2023-09-12T04:19:08;58473.59;;;-141.83;100.00
82187;BME280;71776;52.042;8.160;2023-09-12T04:21:34;58473.59;;;-141.83;100.00
82187;BME280;71776;52.042;8.160;2023-09-12T04:23:59;58473.59;;;-141.83;100.00
82187;BME280;71776;52.042;8.160;2023-09-12T04:26:25;58473.59;;;-141.83;100.00
82187;BME280;71776;52.042;8.160;2023-09-12T04:28:50;58473.59;;;-141.83;100.00
82187;BME280;71776;52.042;8.160;2023-09-12T04:31:15;58473.59;;;-141.83;100.00
82187;BME280;71776;52.042;8.160;2023-09-12T04:33:41;58473.59;;;-141.83;100.00
82187;BME280;71776;52.042;8.160;2023-09-12T04:36:08;58473.59;;;-141.83;100.00
82187;BME280;71776;52.042;8.160;2023-09-12T04:38:33;58473.59;;;-141.83;100.00
82187;BME280;71776;52.042;8.160;2023-09-12T04:41:00;58473.59;;;-141.83;100.00
82187;BME280;71776;52.042;8.160;2023-09-12T04:43:26;58473.59;;;-141.83;100.00
82187;BME280;71776;52.042;8.160;2023-09-12T04:45:51;58473.59;;;-141.83;100.00
82187;BME280;71776;52.042;8.160;2023-09-12T04:48:17;58473.59;;;-141.83;100.00
82187;BME280;71776;52.042;8.160;2023-09-12T04:50:43;58473.59;;;-141.83;100.00
82187;BME280;71776;52.042;8.160;2023-09-12T04:53:10;58473.59;;;-141.83;100.00
82187;BME280;71776;52.042;8.160;2023-09-12T04:55:36;58473.59;;;-141.83;100.00
82187;BME280;71776;52.042;8.160;2023-09-12T04:58:02;58473.59;;;-141.83;100.00
82187;BME280;71776;52.042;8.160;2023-09-12T05:00:27;58473.59;;;-141.83;100.00
82187;BME280;71776;52.042;8.160;2023-09-12T05:02:53;58473.59;;;-141.83;100.00
82187;BME280;71776;52.042;8.160;2023-09-12T05:05:18;58473.59;;;-141.83;100.00
82187;BME280;71776;52.042;8.160;2023-09-12T05:07:44;58473.59;;;-141.83;100.00
82187;BME280;71776;52.042;8.160;2023-09-12T05:10:11;58473.59;;;-141.83;100.00
82187;BME280;71776;52.042;8.160;2023-09-12T05:12:37;58473.59;;;-141.83;100.00
82187;BME280;71776;52.042;8.160;2023-09-12T05:15:03;58473.59;;;-141.83;100.00
82187;BME280;71776;52.042;8.160;2023-09-12T05:17:28;58473.59;;;-141.83;100.00
82187;BME280;71776;52.042;8.160;2023-09-12T05:19:54;58473.59;;;-141.83;100.00
82187;BME280;71776;52.042;8.160;2023-09-12T05:22:20;58473.59;;;-141.83;100.00
82187;BME280;71776;52.042;8.160;2023-09-12T05:24:45;58473.59;;;-141.83;100.00
82187;BME280;71776;52.042;8.160;2023-09-12T05:27:12;58473.59;;;-141.83;100.00
82187;BME280;71776;52.042;8.160;2023-09-12T05:29:38;58473.59;;;-141.83;100.00
82187;BME280;71776;52.042;8.160;2023-09-12T05:32:04;58473.59;;;-141.83;100.00
82187;BME280;71776;52.042;8.160;2023-09-12T05:34:30;58473.59;;;-141.83;100.00
82187;BME280;71776;52.042;8.160;2023-09-12T05:36:56;58473.59;;;-141.83;100.00
82187;BME280;71776;52.042;8.160;2023-09-12T05:39:21;58473.59;;;-141.83;100.00
82187;BME280;71776;52.042;8.160;2023-09-12T05:41:48;58473.59;;;-141.83;100.00
82187;BME280;71776;52.042;8.160;2023-09-12T05:44:15;58473.59;;;-141.83;100.00
82187;BME280;71776;52.042;8.160;2023-09-12T05:46:40;58473.59;;;-141.83;100.00
82187;BME280;71776;52.042;8.160;2023-09-12T05:49:06;58473.59;;;-141.83;100.00
82187;BME280;71776;52.042;8.160;2023-09-12T05:51:32;58473.59;;;-141.83;100.00
82187;BME280;71776;52.042;8.160;2023-09-12T05:53:57;58473.59;;;-141.83;100.00
82187;BME280;71776;52.042;8.160;2023-09-12T05:56:23;58473.59;;;-141.83;100.00
82187;BME280;71776;52.042;8.160;2023-09-12T05:58:49;58473.59;;;-141.83;100.00
82187;BME280;71776;52.042;8.160;2023-09-12T06:01:16;58473.59;;;-141.83;100.00
82187;BME280;71776;52.042;8.160;2023-09-12T06:03:41;58473.59;;;-141.83;100.00
82187;BME280;71776;52.042;8.160;2023-09-12T06:06:07;58473.59;;;-141.83;100.00
82187;BME280;71776;52.042;8.160;2023-09-12T06:08:32;58473.59;;;-141.83;100.00
82187;BME280;71776;52.042;8.160;2023-09-12T06:10:58;58473.59;;;-141.83;100.00
82187;BME280;71776;52.042;8.160;2023-09-12T06:13:23;58473.59;;;-141.83;100.00
82187;BME280;71776;52.042;8.160;2023-09-12T06:15:49;58473.59;;;-141.83;100.00
82187;BME280;71776;52.042;8.160;2023-09-12T06:18:15;58473.59;;;-141.83;100.00
82187;BME280;71776;52.042;8.160;2023-09-12T06:20:41;58473.59;;;-141.83;100.00
82187;BME280;71776;52.042;8.160;2023-09-12T06:23:07;58473.59;;;-141.83;100.00
82187;BME280;71776;52.042;8.160;2023-09-12T06:25:32;58473.59;;;-141.83;100.00
82187;BME280;71776;52.042;8.160;2023-09-12T06:27:58;58473.59;;;-141.83;100.00
82187;BME280;71776;52.042;8.160;2023-09-12T06:30:23;58473.59;;;-141.83;100.00
82187;BME280;71776;52.042;8.160;2023-09-12T06:32:49;58473.59;;;-141.83;100.00
82187;BME280;71776;52.042;8.160;2023-09-12T06:35:16;58473.59;;;-141.83;100.00
82187;BME280;71776;52.042;8.160;2023-09-12T06:37:42;58473.59;;;-141.83;100.00
82187;BME280;71776;52.042;8.160;2023-09-12T06:40:08;58473.59;;;-141.83;100.00
82187;BME280;71776;52.042;8.160;2023-09-12T06:42:33;58473.59;;;-141.83;100.00
82187;BME280;71776;52.042;8.160;2023-09-12T06:44:59;58473.59;;;-141.83;100.00
82187;BME280;71776;52.042;8.160;2023-09-12T06:47:24;58473.59;;;-141.83;100.00
82187;BME280;71776;52.042;8.160;2023-09-12T06:49:50;58473.59;;;-141.83;100.00
82187;BME280;71776;52.042;8.160;2023-09-12T06:52:17;58473.59;;;-141.83;100.00
82187;BME280;71776;52.042;8.160;2023-09-12T06:54:42;58473.59;;;-141.83;100.00
82187;BME280;71776;52.042;8.160;2023-09-12T06:57:08;58473.59;;;-141.83;100.00
82187;BME280;71776;52.042;8.160;2023-09-12T06:59:33;58473.59;;;-141.83;100.00
82187;BME280;71776;52.042;8.160;2023-09-12T07:01:59;58473.59;;;-141.83;100.00
82187;BME280;71776;52.042;8.160;2023-09-12T07:04:24;58473.59;;;-141.83;100.00
82187;BME280;71776;52.042;8.160;2023-09-12T07:06:50;58473.59;;;-141.83;100.00
82187;BME280;71776;52.042;8.160;2023-09-12T07:09:17;58473.59;;;-141.83;100.00
82187;BME280;71776;52.042;8.160;2023-09-12T07:11:43;58473.59;;;-141.83;100.00
82187;BME280;71776;52.042;8.160;2023-09-12T07:14:08;58473.59;;;-141.83;100.00
82187;BME280;71776;52.042;8.160;2023-09-12T07:16:34;58473.59;;;-141.83;100.00
82187;BME280;71776;52.042;8.160;2023-09-12T07:19:00;58473.59;;;-141.83;100.00
82187;BME280;71776;52.042;8.160;2023-09-12T07:21:25;58473.59;;;-141.83;100.00
82187;BME280;71776;52.042;8.160;2023-09-12T07:23:51;58473.59;;;-141.83;100.00
82187;BME280;71776;52.042;8.160;2023-09-12T07:26:18;58473.59;;;-141.83;100.00
82187;BME280;71776;52.042;8.160;2023-09-12T07:28:43;58473.59;;;-141.83;100.00
82187;BME280;71776;52.042;8.160;2023-09-12T07:31:09;58473.59;;;-141.83;100.00
82187;BME280;71776;52.042;8.160;2023-09-12T07:33:34;58473.59;;;-141.83;100.00
82187;BME280;71776;52.042;8.160;2023-09-12T07:36:00;58473.59;;;-141.83;100.00
82187;BME280;71776;52.042;8.160;2023-09-12T07:38:25;58473.59;;;-141.83;100.00
82187;BME280;71776;52.042;8.160;2023-09-12T07:40:51;58473.59;;;-141.83;100.00
82187;BME280;71776;52.042;8.160;2023-09-12T07:43:18;58473.59;;;-141.83;100.00
82187;BME280;71776;52.042;8.160;2023-09-12T07:45:43;58473.59;;;-141.83;100.00
82187;BME280;71776;52.042;8.160;2023-09-12T07:48:10;58473.59;;;-141.83;100.00
82187;BME280;71776;52.042;8.160;2023-09-12T07:50:35;58473.59;;;-141.83;100.00
82187;BME280;71776;52.042;8.160;2023-09-12T07:53:01;58473.59;;;-141.83;100.00
82187;BME280;71776;52.042;8.160;2023-09-12T07:55:26;58473.59;;;-141.83;100.00
82187;BME280;71776;52.042;8.160;2023-09-12T07:57:52;58473.59;;;-141.83;100.00
82187;BME280;71776;52.042;8.160;2023-09-12T08:00:19;58473.59;;;-141.83;100.00
82187;BME280;71776;52.042;8.160;2023-09-12T08:02:44;58473.59;;;-141.83;100.00
82187;BME280;71776;52.042;8.160;2023-09-12T08:05:10;58473.59;;;-141.83;100.00
82187;BME280;71776;52.042;8.160;2023-09-12T08:07:36;58473.59;;;-141.83;100.00
82187;BME280;71776;52.042;8.160;2023-09-12T08:10:01;58473.59;;;-141.83;100.00
82187;BME280;71776;52.042;8.160;2023-09-12T08:12:27;58473.59;;;-141.83;100.00
82187;BME280;71776;52.042;8.160;2023-09-12T08:14:53;58473.59;;;-141.83;100.00
82187;BME280;71776;52.042;8.160;2023-09-12T08:17:22;58473.59;;;-141.83;100.00
82187;BME280;71776;52.042;8.160;2023-09-12T08:19:48;58473.59;;;-141.83;100.00
82187;BME280;71776;52.042;8.160;2023-09-12T08:22:13;58473.59;;;-141.83;100.00
82187;BME280;71776;52.042;8.160;2023-09-12T08:24:39;58473.59;;;-141.83;100.00
82187;BME280;71776;52.042;8.160;2023-09-12T08:27:05;58473.59;;;-141.83;100.00
82187;BME280;71776;52.042;8.160;2023-09-12T08:29:31;58473.59;;;-141.83;100.00
82187;BME280;71776;52.042;8.160;2023-09-12T08:31:57;58473.59;;;-141.83;100.00
82187;BME280;71776;52.042;8.160;2023-09-12T08:34:23;58473.59;;;-141.83;100.00
82187;BME280;71776;52.042;8.160;2023-09-12T08:36:49;58473.59;;;-141.83;100.00
82187;BME280;71776;52.042;8.160;2023-09-12T08:39:16;58473.59;;;-141.83;100.00
82187;BME280;71776;52.042;8.160;2023-09-12T08:41:42;58473.59;;;-141.83;100.00
82187;BME280;71776;52.042;8.160;2023-09-12T08:44:08;58473.59;;;-141.83;100.00
82187;BME280;71776;52.042;8.160;2023-09-12T08:46:34;58473.59;;;-141.83;100.00
82187;BME280;71776;52.042;8.160;2023-09-12T08:49:00;58473.59;;;-141.83;100.00
82187;BME280;71776;52.042;8.160;2023-09-12T08:51:27;58473.59;;;-141.83;100.00
82187;BME280;71776;52.042;8.160;2023-09-12T08:53:52;58473.59;;;-141.83;100.00
82187;BME280;71776;52.042;8.160;2023-09-12T08:56:18;58473.59;;;-141.83;100.00
82187;BME280;71776;52.042;8.160;2023-09-12T08:58:45;58473.59;;;-141.83;100.00
82187;BME280;71776;52.042;8.160;2023-09-12T09:01:13;58473.59;;;-141.83;100.00
82187;BME280;71776;52.042;8.160;2023-09-12T09:03:39;58473.59;;;-141.83;100.00
82187;BME280;71776;52.042;8.160;2023-09-12T09:06:08;58473.59;;;-141.83;100.00
82187;BME280;71776;52.042;8.160;2023-09-12T09:08:36;58473.59;;;-141.83;100.00
82187;BME280;71776;52.042;8.160;2023-09-12T09:11:02;58473.59;;;-141.83;100.00
82187;BME280;71776;52.042;8.160;2023-09-12T09:13:28;58473.59;;;-141.83;100.00
82187;BME280;71776;52.042;8.160;2023-09-12T09:16:10;58473.59;;;-141.83;100.00
82187;BME280;71776;52.042;8.160;2023-09-12T09:18:50;58473.59;;;-141.83;100.00
82187;BME280;71776;52.042;8.160;2023-09-12T09:21:17;58473.59;;;-141.83;100.00
82187;BME280;71776;52.042;8.160;2023-09-12T09:23:46;58473.59;;;-141.83;100.00
82187;BME280;71776;52.042;8.160;2023-09-12T09:26:12;58473.59;;;-141.83;100.00
82187;BME280;71776;52.042;8.160;2023-09-12T09:28:37;58473.59;;;-141.83;100.00
82187;BME280;71776;52.042;8.160;2023-09-12T09:31:03;58473.59;;;-141.83;100.00
82187;BME280;71776;52.042;8.160;2023-09-12T09:33:35;58473.59;;;-141.83;100.00
82187;BME280;71776;52.042;8.160;2023-09-12T09:36:02;58473.59;;;-141.83;100.00
82187;BME280;71776;52.042;8.160;2023-09-12T09:38:28;58473.59;;;-141.83;100.00
82187;BME280;71776;52.042;8.160;2023-09-12T09:40:55;58473.59;;;-141.83;100.00
82187;BME280;71776;52.042;8.160;2023-09-12T09:43:21;58473.59;;;-141.83;100.00
82187;BME280;71776;52.042;8.160;2023-09-12T09:45:47;58473.59;;;-141.83;100.00
82187;BME280;71776;52.042;8.160;2023-09-12T09:48:18;58473.59;;;-141.83;100.00
82187;BME280;71776;52.042;8.160;2023-09-12T09:50:43;58473.59;;;-141.83;100.00
82187;BME280;71776;52.042;8.160;2023-09-12T09:53:09;58473.59;;;-141.83;100.00
82187;BME280;71776;52.042;8.160;2023-09-12T09:55:34;58473.59;;;-141.83;100.00
82187;BME280;71776;52.042;8.160;2023-09-12T09:58:01;58473.59;;;-141.83;100.00
82187;BME280;71776;52.042;8.160;2023-09-12T10:00:28;58473.59;;;-141.83;100.00
82187;BME280;71776;52.042;8.160;2023-09-12T10:02:55;58473.59;;;-141.83;100.00
82187;BME280;71776;52.042;8.160;2023-09-12T10:05:21;58473.59;;;-141.83;100.00
82187;BME280;71776;52.042;8.160;2023-09-12T10:07:49;58473.59;;;-141.83;100.00
82187;BME280;71776;52.042;8.160;2023-09-12T10:10:16;58473.59;;;-141.83;100.00
82187;BME280;71776;52.042;8.160;2023-09-12T10:12:45;58473.59;;;-141.83;100.00
82187;BME280;71776;52.042;8.160;2023-09-12T10:15:14;58473.59;;;-141.83;100.00
82187;BME280;71776;52.042;8.160;2023-09-12T10:17:43;58473.59;;;-141.83;100.00
82187;BME280;71776;52.042;8.160;2023-09-12T10:20:15;58473.59;;;-141.83;100.00
82187;BME280;71776;52.042;8.160;2023-09-12T10:22:53;58473.59;;;-141.83;100.00
82187;BME280;71776;52.042;8.160;2023-09-12T10:25:21;58473.59;;;-141.83;100.00
82187;BME280;71776;52.042;8.160;2023-09-12T10:27:48;58473.59;;;-141.83;100.00
82187;BME280;71776;52.042;8.160;2023-09-12T10:30:16;58473.59;;;-141.83;100.00
82187;BME280;71776;52.042;8.160;2023-09-12T10:32:42;58473.59;;;-141.83;100.00
82187;BME280;71776;52.042;8.160;2023-09-12T10:35:10;58473.59;;;-141.83;100.00
82187;BME280;71776;52.042;8.160;2023-09-12T10:37:37;58473.59;;;-141.83;100.00
82187;BME280;71776;52.042;8.160;2023-09-12T10:40:08;58473.59;;;-141.83;100.00
82187;BME280;71776;52.042;8.160;2023-09-12T10:42:34;58473.59;;;-141.83;100.00
82187;BME280;71776;52.042;8.160;2023-09-12T10:45:01;58473.59;;;-141.83;100.00
82187;BME280;71776;52.042;8.160;2023-09-12T10:47:29;58473.59;;;-141.83;100.00
82187;BME280;71776;52.042;8.160;2023-09-12T10:49:55;58473.59;;;-141.83;100.00
82187;BME280;71776;52.042;8.160;2023-09-12T10:52:24;58473.59;;;-141.83;100.00
82187;BME280;71776;52.042;8.160;2023-09-12T10:54:50;58473.59;;;-141.83;100.00
82187;BME280;71776;52.042;8.160;2023-09-12T10:57:16;58473.59;;;-141.83;100.00
82187;BME280;71776;52.042;8.160;2023-09-12T11:00:09;58473.59;;;-141.83;100.00
82187;BME280;71776;52.042;8.160;2023-09-12T11:02:36;58473.59;;;-141.83;100.00
82187;BME280;71776;52.042;8.160;2023-09-12T11:05:03;58473.59;;;-141.83;100.00
82187;BME280;71776;52.042;8.160;2023-09-12T11:07:31;58473.59;;;-141.83;100.00
82187;BME280;71776;52.042;8.160;2023-09-12T11:10:20;58473.59;;;-141.83;100.00
82187;BME280;71776;52.042;8.160;2023-09-12T11:12:47;58473.59;;;-141.83;100.00
82187;BME280;71776;52.042;8.160;2023-09-12T11:15:13;58473.59;;;-141.83;100.00
82187;BME280;71776;52.042;8.160;2023-09-12T11:17:41;58473.59;;;-141.83;100.00
82187;BME280;71776;52.042;8.160;2023-09-12T11:20:08;58473.59;;;-141.83;100.00
82187;BME280;71776;52.042;8.160;2023-09-12T11:22:34;58473.59;;;-141.83;100.00
82187;BME280;71776;52.042;8.160;2023-09-12T11:25:02;58473.59;;;-141.83;100.00
82187;BME280;71776;52.042;8.160;2023-09-12T11:27:31;58473.59;;;-141.83;100.00
82187;BME280;71776;52.042;8.160;2023-09-12T11:30:03;58473.59;;;-141.83;100.00
82187;BME280;71776;52.042;8.160;2023-09-12T11:32:31;58473.59;;;-141.83;100.00
82187;BME280;71776;52.042;8.160;2023-09-12T11:34:59;58473.59;;;-141.83;100.00
82187;BME280;71776;52.042;8.160;2023-09-12T11:37:25;58473.59;;;-141.83;100.00
82187;BME280;71776;52.042;8.160;2023-09-12T11:39:51;58473.59;;;-141.83;100.00
82187;BME280;71776;52.042;8.160;2023-09-12T11:42:17;58473.59;;;-141.83;100.00
82187;BME280;71776;52.042;8.160;2023-09-12T11:44:43;58473.59;;;-141.83;100.00
82187;BME280;71776;52.042;8.160;2023-09-12T11:47:09;58473.59;;;-141.83;100.00
82187;BME280;71776;52.042;8.160;2023-09-12T11:49:36;58473.59;;;-141.83;100.00
82187;BME280;71776;52.042;8.160;2023-09-12T11:52:08;58473.59;;;-141.83;100.00
82187;BME280;71776;52.042;8.160;2023-09-12T11:54:33;58473.59;;;-141.83;100.00
82187;BME280;71776;52.042;8.160;2023-09-12T11:56:59;58473.59;;;-141.83;100.00
82187;BME280;71776;52.042;8.160;2023-09-12T11:59:26;58473.59;;;-141.83;100.00
82187;BME280;71776;52.042;8.160;2023-09-12T12:01:52;58473.59;;;-141.83;100.00
82187;BME280;71776;52.042;8.160;2023-09-12T12:04:20;58473.59;;;-141.83;100.00
82187;BME280;71776;52.042;8.160;2023-09-12T12:06:45;58473.59;;;-141.83;100.00
82187;BME280;71776;52.042;8.160;2023-09-12T12:09:12;58473.59;;;-141.83;100.00
82187;BME280;71776;52.042;8.160;2023-09-12T12:11:39;58473.59;;;-141.83;100.00
82187;BME280;71776;52.042;8.160;2023-09-12T12:14:12;58473.59;;;-141.83;100.00
82187;BME280;71776;52.042;8.160;2023-09-12T12:16:38;58473.59;;;-141.83;100.00
82187;BME280;71776;52.042;8.160;2023-09-12T12:19:03;58473.59;;;-141.83;100.00
82187;BME280;71776;52.042;8.160;2023-09-12T12:21:29;58473.59;;;-141.83;100.00
82187;BME280;71776;52.042;8.160;2023-09-12T12:23:58;58473.59;;;-141.83;100.00
82187;BME280;71776;52.042;8.160;2023-09-12T12:26:25;58473.59;;;-141.83;100.00
82187;BME280;71776;52.042;8.160;2023-09-12T12:28:51;58473.59;;;-141.83;100.00
82187;BME280;71776;52.042;8.160;2023-09-12T12:31:17;58473.59;;;-141.83;100.00
82187;BME280;71776;52.042;8.160;2023-09-12T12:33:47;58473.59;;;-141.83;100.00
82187;BME280;71776;52.042;8.160;2023-09-12T12:36:13;58473.59;;;-141.83;100.00
82187;BME280;71776;52.042;8.160;2023-09-12T12:38:39;58473.59;;;-141.83;100.00
82187;BME280;71776;52.042;8.160;2023-09-12T12:41:04;58473.59;;;-141.83;100.00
82187;BME280;71776;52.042;8.160;2023-09-12T12:43:31;58473.59;;;-141.83;100.00